createdAt,value
2018-01-05T00:01:06.789Z,3.80
2018-01-05T00:03:34.293Z,3.60
2018-01-05T00:06:01.798Z,4.03
2018-01-05T00:08:29.320Z,3.67
2018-01-05T00:10:56.829Z,4.23
2018-01-05T00:13:24.362Z,4.40
2018-01-05T00:15:51.900Z,4.23
2018-01-05T00:18:19.436Z,4.17
2018-01-05T00:20:46.967Z,3.97
2018-01-05T00:23:14.478Z,4.27
2018-01-05T00:25:41.996Z,3.50
2018-01-05T00:28:09.503Z,3.90
2018-01-05T00:30:37.062Z,4.47
2018-01-05T00:33:04.591Z,3.87
2018-01-05T00:35:32.101Z,4.17
2018-01-05T00:37:59.610Z,3.57
2018-01-05T00:40:27.116Z,3.80
2018-01-05T00:42:54.624Z,3.80
2018-01-05T00:45:22.137Z,3.80
2018-01-05T00:47:49.656Z,4.07
2018-01-05T00:50:17.166Z,4.47
2018-01-05T00:52:44.727Z,3.80
2018-01-05T00:55:12.199Z,3.50
2018-01-05T00:57:39.731Z,4.03
2018-01-05T01:00:07.243Z,4.20
2018-01-05T01:02:34.749Z,4.37
2018-01-05T01:05:02.272Z,3.73
2018-01-05T01:07:29.795Z,3.93
2018-01-05T01:09:57.299Z,3.73
2018-01-05T01:12:24.813Z,3.77
2018-01-05T01:14:52.329Z,3.60
2018-01-05T01:17:19.839Z,3.30
2018-01-05T01:19:47.354Z,4.00
2018-01-05T01:22:14.885Z,3.57
2018-01-05T01:24:42.397Z,3.70
2018-01-05T01:27:09.901Z,3.70
2018-01-05T01:29:37.409Z,3.23
2018-01-05T01:32:04.929Z,3.90
2018-01-05T01:34:32.435Z,3.30
2018-01-05T01:36:59.942Z,3.13
2018-01-05T01:39:27.465Z,3.37
2018-01-05T01:41:54.973Z,3.83
2018-01-05T01:44:22.485Z,3.83
2018-01-05T01:46:49.994Z,3.77
2018-01-05T01:49:17.510Z,3.73
2018-01-05T01:51:45.031Z,3.77
2018-01-05T01:54:12.541Z,3.60
2018-01-05T01:56:40.057Z,3.60
2018-01-05T01:59:07.564Z,3.40
2018-01-05T02:01:35.066Z,3.80
2018-01-05T02:04:02.577Z,3.90
2018-01-05T02:06:30.093Z,3.40
2018-01-05T02:08:57.593Z,3.90
2018-01-05T02:11:25.102Z,4.43
2018-01-05T02:13:52.608Z,3.80
2018-01-05T02:16:20.113Z,4.60
2018-01-05T02:18:47.624Z,3.57
2018-01-05T02:21:15.139Z,4.60
2018-01-05T02:23:42.649Z,3.80
2018-01-05T02:26:10.166Z,4.17
2018-01-05T02:28:37.670Z,3.63
2018-01-05T02:31:05.182Z,4.13
2018-01-05T02:33:32.685Z,4.20
2018-01-05T02:36:00.185Z,3.13
2018-01-05T02:38:27.699Z,3.30
2018-01-05T02:40:55.209Z,3.20
2018-01-05T02:43:22.722Z,3.40
2018-01-05T02:45:50.222Z,2.20
2018-01-05T02:48:17.734Z,2.67
2018-01-05T02:50:45.271Z,3.13
2018-01-05T02:53:12.799Z,2.60
2018-01-05T02:55:40.310Z,2.57
2018-01-05T02:58:07.818Z,2.63
2018-01-05T03:00:35.324Z,2.00
2018-01-05T03:03:02.835Z,2.80
2018-01-05T03:05:30.346Z,2.57
2018-01-05T03:07:57.849Z,2.63
2018-01-05T03:10:25.352Z,2.23
2018-01-05T03:12:52.853Z,1.93
2018-01-05T03:15:20.365Z,2.00
2018-01-05T03:17:47.873Z,1.97
2018-01-05T03:20:15.392Z,1.80
2018-01-05T03:22:42.902Z,2.17
2018-01-05T03:25:10.406Z,1.90
2018-01-05T03:27:37.906Z,1.87
2018-01-05T03:30:05.434Z,1.60
2018-01-05T03:32:32.941Z,2.10
2018-01-05T03:35:01.300Z,2.97
2018-01-05T03:37:28.817Z,1.50
2018-01-05T03:39:56.327Z,2.37
2018-01-05T03:42:23.843Z,2.07
2018-01-05T03:44:51.355Z,1.73
2018-01-05T03:47:18.866Z,2.17
2018-01-05T03:49:46.376Z,1.50
2018-01-05T03:52:13.887Z,1.80
2018-01-05T03:54:41.390Z,1.60
2018-01-05T03:57:08.898Z,1.57
2018-01-05T03:59:36.409Z,1.70
2018-01-05T04:02:03.920Z,1.43
2018-01-05T04:04:31.423Z,1.90
2018-01-05T04:06:58.925Z,1.60
2018-01-05T04:09:26.430Z,1.73
2018-01-05T04:11:53.936Z,1.60
2018-01-05T04:14:21.441Z,1.83
2018-01-05T04:16:48.946Z,2.00
2018-01-05T04:19:16.459Z,1.60
2018-01-05T04:21:43.965Z,1.47
2018-01-05T04:24:11.496Z,2.10
2018-01-05T04:26:39.005Z,2.13
2018-01-05T04:29:06.514Z,1.50
2018-01-05T04:31:34.026Z,1.63
2018-01-05T04:34:01.548Z,1.80
2018-01-05T04:36:29.054Z,1.80
2018-01-05T04:38:56.561Z,1.60
2018-01-05T04:41:24.061Z,1.63
2018-01-05T04:43:51.565Z,1.40
2018-01-05T04:46:19.077Z,1.63
2018-01-05T04:48:46.584Z,1.40
2018-01-05T04:51:14.093Z,1.63
2018-01-05T04:53:41.601Z,1.60
2018-01-05T04:56:09.114Z,1.80
2018-01-05T04:58:36.618Z,1.80
2018-01-05T05:01:04.134Z,1.60
2018-01-05T05:03:31.635Z,1.40
2018-01-05T05:05:59.132Z,1.93
2018-01-05T05:08:26.634Z,1.60
2018-01-05T05:10:54.147Z,1.60
2018-01-05T05:13:21.704Z,2.07
2018-01-05T05:15:49.192Z,2.00
2018-01-05T05:18:16.689Z,2.00
2018-01-05T05:20:44.203Z,2.27
2018-01-05T05:23:11.704Z,2.27
2018-01-05T05:25:39.201Z,2.20
2018-01-05T05:28:06.705Z,2.30
2018-01-05T05:30:34.218Z,2.60
2018-01-05T05:33:01.721Z,2.27
2018-01-05T05:35:29.229Z,2.70
2018-01-05T05:37:56.729Z,2.50
2018-01-05T05:40:24.233Z,2.10
2018-01-05T05:42:51.737Z,2.20
2018-01-05T05:45:19.231Z,2.73
2018-01-05T05:47:46.734Z,2.50
2018-01-05T05:50:14.246Z,2.53
2018-01-05T05:52:41.766Z,2.90
2018-01-05T05:55:09.280Z,3.00
2018-01-05T05:57:36.789Z,3.13
2018-01-05T06:00:04.302Z,3.47
2018-01-05T06:02:31.800Z,2.97
2018-01-05T06:04:59.306Z,3.17
2018-01-05T06:07:26.804Z,2.57
2018-01-05T06:09:54.310Z,3.00
2018-01-05T06:12:21.815Z,3.00
2018-01-05T06:14:49.328Z,2.60
2018-01-05T06:17:16.841Z,3.33
2018-01-05T06:19:44.344Z,3.67
2018-01-05T06:22:11.849Z,3.10
2018-01-05T06:24:39.357Z,3.40
2018-01-05T06:27:06.877Z,3.53
2018-01-05T06:29:34.379Z,3.30
2018-01-05T06:32:01.906Z,3.90
2018-01-05T06:34:29.427Z,3.27
2018-01-05T06:36:56.924Z,3.57
2018-01-05T06:39:24.440Z,3.33
2018-01-05T06:41:51.950Z,3.93
2018-01-05T06:44:19.454Z,3.27
2018-01-05T06:46:46.965Z,3.37
2018-01-05T06:49:14.469Z,4.20
2018-01-05T06:51:41.988Z,4.00
2018-01-05T06:54:09.497Z,4.30
2018-01-05T06:56:36.998Z,3.57
2018-01-05T06:59:04.505Z,3.20
2018-01-05T07:01:32.069Z,3.47
2018-01-05T07:03:59.576Z,3.57
2018-01-05T07:06:27.085Z,3.70
2018-01-05T07:08:54.599Z,4.30
2018-01-05T07:11:22.109Z,3.70
2018-01-05T07:13:49.617Z,4.37
2018-01-05T07:16:17.125Z,3.77
2018-01-05T07:18:44.634Z,3.57
2018-01-05T07:21:12.141Z,3.50
2018-01-05T07:23:39.649Z,3.40
2018-01-05T07:26:07.161Z,3.57
2018-01-05T07:28:34.664Z,3.70
2018-01-05T07:31:02.169Z,3.30
2018-01-05T07:33:29.677Z,2.63
2018-01-05T07:35:57.197Z,3.47
2018-01-05T07:38:24.709Z,3.90
2018-01-05T07:40:52.216Z,3.07
2018-01-05T07:43:19.726Z,3.40
2018-01-05T07:45:47.294Z,3.70
2018-01-05T07:48:14.797Z,3.20
2018-01-05T07:50:42.302Z,3.20
2018-01-05T07:53:09.875Z,3.30
2018-01-05T07:55:37.410Z,3.47
2018-01-05T07:58:04.913Z,3.30
2018-01-05T08:00:32.430Z,3.43
2018-01-05T08:02:59.932Z,3.03
2018-01-05T08:05:27.450Z,3.40
2018-01-05T08:07:54.973Z,2.70
2018-01-05T08:10:22.485Z,3.17
2018-01-05T08:12:50.004Z,3.67
2018-01-05T08:15:17.528Z,3.23
2018-01-05T08:17:45.052Z,2.97
2018-01-05T08:20:12.555Z,2.97
2018-01-05T08:22:40.065Z,3.13
2018-01-05T08:25:07.582Z,2.60
2018-01-05T08:27:35.089Z,2.37
2018-01-05T08:30:02.604Z,3.07
2018-01-05T08:32:30.109Z,2.80
2018-01-05T08:34:57.622Z,2.30
2018-01-05T08:37:25.128Z,2.17
2018-01-05T08:39:52.639Z,2.80
2018-01-05T08:42:20.150Z,3.10
2018-01-05T08:44:47.657Z,3.30
2018-01-05T08:47:15.156Z,2.53
2018-01-05T08:49:42.672Z,2.93
2018-01-05T08:52:10.182Z,3.13
2018-01-05T08:54:37.704Z,2.80
2018-01-05T08:57:05.229Z,2.87
2018-01-05T08:59:32.755Z,3.30
2018-01-05T09:02:00.277Z,2.70
2018-01-05T09:04:27.789Z,2.60
2018-01-05T09:06:55.311Z,4.40
2018-01-05T09:09:22.823Z,2.93
2018-01-05T09:11:50.340Z,3.17
2018-01-05T09:14:17.857Z,3.17
2018-01-05T09:16:45.360Z,3.07
2018-01-05T09:19:12.870Z,3.13
2018-01-05T09:21:40.379Z,3.40
2018-01-05T09:24:07.885Z,3.87
2018-01-05T09:26:35.423Z,3.40
2018-01-05T09:29:02.941Z,3.40
2018-01-05T09:31:30.459Z,3.13
2018-01-05T09:33:57.975Z,2.77
2018-01-05T09:36:25.490Z,2.77
2018-01-05T09:38:53.009Z,3.27
2018-01-05T09:41:20.654Z,2.83
2018-01-05T09:43:48.153Z,2.80
2018-01-05T09:46:15.676Z,2.60
2018-01-05T09:48:43.199Z,3.07
2018-01-05T09:51:10.720Z,2.93
2018-01-05T09:53:38.239Z,2.97
2018-01-05T09:56:05.911Z,2.90
2018-01-05T09:58:33.425Z,2.90
2018-01-05T10:01:00.985Z,2.80
2018-01-05T10:03:28.493Z,2.53
2018-01-05T10:05:56.016Z,2.97
2018-01-05T10:08:23.543Z,3.30
2018-01-05T10:10:51.156Z,2.70
2018-01-05T10:13:18.698Z,3.07
2018-01-05T10:15:46.249Z,2.97
2018-01-05T10:18:13.758Z,2.37
2018-01-05T10:20:41.260Z,2.70
2018-01-05T10:23:08.764Z,2.33
2018-01-05T10:25:36.277Z,2.67
2018-01-05T10:28:03.792Z,2.70
2018-01-05T10:30:31.309Z,3.23
2018-01-05T10:32:58.821Z,2.33
2018-01-05T10:35:26.335Z,2.60
2018-01-05T10:37:53.858Z,2.67
2018-01-05T10:40:21.371Z,2.80
2018-01-05T10:42:48.894Z,2.20
2018-01-05T10:45:16.407Z,2.50
2018-01-05T10:47:43.921Z,2.57
2018-01-05T10:50:11.421Z,2.20
2018-01-05T10:52:38.930Z,2.20
2018-01-05T10:55:06.448Z,2.80
2018-01-05T10:57:33.961Z,2.33
2018-01-05T11:00:01.514Z,2.43
2018-01-05T11:02:29.037Z,2.33
2018-01-05T11:04:56.560Z,2.53
2018-01-05T11:07:24.068Z,2.30
2018-01-05T11:09:51.589Z,2.37
2018-01-05T11:12:19.102Z,2.23
2018-01-05T11:14:46.622Z,2.60
2018-01-05T11:17:14.134Z,2.40
2018-01-05T11:19:41.637Z,3.03
2018-01-05T11:22:09.148Z,2.13
2018-01-05T11:24:36.648Z,1.90
2018-01-05T11:27:04.153Z,2.50
2018-01-05T11:29:31.725Z,2.23
2018-01-05T11:31:59.242Z,2.23
2018-01-05T11:34:26.756Z,2.40
2018-01-05T11:36:54.296Z,2.37
2018-01-05T11:39:21.809Z,2.57
2018-01-05T11:41:49.360Z,2.70
2018-01-05T11:44:16.880Z,2.90
2018-01-05T11:46:44.397Z,2.53
2018-01-05T11:49:11.916Z,2.27
2018-01-05T11:51:39.433Z,1.87
2018-01-05T11:54:06.947Z,2.20
2018-01-05T11:56:34.456Z,2.30
2018-01-05T11:59:01.971Z,2.03
2018-01-05T12:01:29.521Z,2.87
2018-01-05T12:03:57.089Z,2.50
2018-01-05T12:06:24.727Z,2.80
2018-01-05T12:08:52.236Z,2.50
2018-01-05T12:11:19.746Z,2.50
2018-01-05T12:13:47.261Z,3.03
2018-01-05T12:16:14.777Z,2.50
2018-01-05T12:18:42.296Z,2.67
2018-01-05T12:21:09.802Z,2.30
2018-01-05T12:23:37.306Z,2.77
2018-01-05T12:26:04.817Z,2.87
2018-01-05T12:28:32.320Z,2.10
2018-01-05T12:30:59.852Z,2.70
2018-01-05T12:33:27.471Z,2.33
2018-01-05T12:35:54.982Z,2.10
2018-01-05T12:38:22.497Z,2.57
2018-01-05T12:40:50.015Z,2.30
2018-01-05T12:43:17.544Z,1.97
2018-01-05T12:45:45.049Z,2.23
2018-01-05T12:48:12.560Z,2.07
2018-01-05T12:50:40.097Z,2.17
2018-01-05T12:53:07.641Z,1.80
2018-01-05T12:55:35.155Z,1.50
2018-01-05T12:58:02.674Z,1.67
2018-01-05T13:00:30.176Z,1.70
2018-01-05T13:02:57.777Z,1.87
2018-01-05T13:05:25.288Z,1.60
2018-01-05T13:07:52.885Z,1.80
2018-01-05T13:10:20.389Z,1.67
2018-01-05T13:12:47.940Z,1.80
2018-01-05T13:15:15.451Z,1.70
2018-01-05T13:17:43.152Z,1.97
2018-01-05T13:20:10.658Z,2.00
2018-01-05T13:22:38.162Z,2.30
2018-01-05T13:25:05.677Z,1.40
2018-01-05T13:27:33.188Z,1.43
2018-01-05T13:30:00.693Z,1.20
2018-01-05T13:32:28.292Z,1.57
2018-01-05T13:34:55.801Z,1.37
2018-01-05T13:37:23.500Z,1.20
2018-01-05T13:39:51.001Z,1.23
2018-01-05T13:42:18.503Z,1.50
2018-01-05T13:44:46.013Z,1.17
2018-01-05T13:47:13.515Z,1.73
2018-01-05T13:49:41.058Z,1.17
2018-01-05T13:52:08.567Z,1.53
2018-01-05T13:54:36.074Z,1.40
2018-01-05T13:57:03.584Z,1.00
2018-01-05T13:59:31.120Z,1.10
2018-01-05T14:01:58.631Z,1.20
2018-01-05T14:04:26.133Z,1.40
2018-01-05T14:06:53.646Z,1.40
2018-01-05T14:09:21.140Z,1.40
2018-01-05T14:11:48.649Z,1.43
2018-01-05T14:14:16.158Z,1.70
2018-01-05T14:16:43.670Z,1.30
2018-01-05T14:19:11.185Z,1.50
2018-01-05T14:21:38.691Z,1.40
2018-01-05T14:24:06.198Z,1.37
2018-01-05T14:26:33.706Z,1.30
2018-01-05T14:29:01.205Z,1.80
2018-01-05T14:31:28.712Z,1.83
2018-01-05T14:33:56.217Z,1.60
2018-01-05T14:36:23.714Z,1.70
2018-01-05T14:38:51.216Z,1.57
2018-01-05T14:41:18.723Z,2.00
2018-01-05T14:43:46.229Z,1.93
2018-01-05T14:46:13.729Z,2.00
2018-01-05T14:48:41.237Z,1.50
2018-01-05T14:51:08.746Z,2.07
2018-01-05T14:53:36.265Z,1.87
2018-01-05T14:56:03.773Z,1.70
2018-01-05T14:58:31.282Z,2.10
2018-01-05T15:00:58.800Z,2.10
2018-01-05T15:03:26.302Z,1.97
2018-01-05T15:05:53.818Z,1.90
2018-01-05T15:08:21.345Z,1.73
2018-01-05T15:10:48.857Z,1.80
2018-01-05T15:13:16.361Z,2.80
2018-01-05T15:15:43.870Z,2.00
2018-01-05T15:18:11.378Z,1.73
2018-01-05T15:20:38.888Z,1.87
2018-01-05T15:23:06.380Z,2.13
2018-01-05T15:25:33.886Z,2.10
2018-01-05T15:28:01.390Z,1.80
2018-01-05T15:30:28.889Z,1.77
2018-01-05T15:32:56.394Z,2.27
2018-01-05T15:35:23.902Z,2.03
2018-01-05T15:37:51.414Z,2.10
2018-01-05T15:40:18.925Z,2.20
2018-01-05T15:42:46.436Z,1.90
2018-01-05T15:45:13.933Z,2.10
2018-01-05T15:47:41.438Z,1.90
2018-01-05T15:50:08.966Z,2.00
2018-01-05T15:52:36.477Z,1.70
2018-01-05T15:55:03.997Z,1.80
2018-01-05T15:57:31.502Z,2.00
2018-01-05T15:59:59.005Z,1.83
2018-01-05T16:02:26.512Z,2.10
2018-01-05T16:04:54.029Z,1.87
2018-01-05T16:07:21.569Z,2.20
2018-01-05T16:09:49.069Z,2.07
2018-01-05T16:12:16.573Z,2.13
2018-01-05T16:14:44.085Z,1.67
2018-01-05T16:17:11.597Z,2.57
2018-01-05T16:19:39.098Z,1.80
2018-01-05T16:22:06.592Z,2.10
2018-01-05T16:24:34.096Z,1.83
2018-01-05T16:27:01.650Z,2.10
2018-01-05T16:29:29.157Z,1.87
2018-01-05T16:31:56.667Z,2.17
2018-01-05T16:34:24.177Z,2.10
2018-01-05T16:36:51.677Z,2.80
2018-01-05T16:39:19.180Z,2.27
2018-01-05T16:41:46.693Z,2.47
2018-01-05T16:44:15.093Z,2.33
2018-01-05T16:46:42.592Z,2.33
2018-01-05T16:49:10.094Z,2.47
2018-01-05T16:51:37.625Z,2.07
2018-01-05T16:54:05.133Z,2.23
2018-01-05T16:56:32.629Z,2.23
2018-01-05T16:59:00.134Z,2.00
2018-01-05T17:01:27.641Z,2.10
2018-01-05T17:03:55.145Z,1.93
2018-01-05T17:06:22.657Z,2.43
2018-01-05T17:08:50.166Z,2.47
2018-01-05T17:11:17.752Z,2.63
2018-01-05T17:13:45.266Z,2.20
2018-01-05T17:16:12.775Z,1.90
2018-01-05T17:18:40.280Z,1.93
2018-01-05T17:21:07.794Z,2.00
2018-01-05T17:23:35.301Z,2.37
2018-01-05T17:26:02.806Z,1.70
2018-01-05T17:28:30.358Z,2.10
2018-01-05T17:30:57.863Z,2.37
2018-01-05T17:33:25.379Z,2.07
2018-01-05T17:35:52.948Z,2.63
2018-01-05T17:38:20.458Z,2.20
2018-01-05T17:40:48.022Z,2.10
2018-01-05T17:43:15.525Z,2.20
2018-01-05T17:45:43.073Z,2.00
2018-01-05T17:48:10.578Z,2.13
2018-01-05T17:50:38.103Z,2.23
2018-01-05T17:53:05.624Z,2.23
2018-01-05T17:55:33.198Z,2.33
2018-01-05T17:58:01.570Z,2.23
2018-01-05T18:00:29.110Z,2.23
2018-01-05T18:02:56.661Z,1.90
2018-01-05T18:05:24.180Z,1.90
2018-01-05T18:07:51.742Z,2.20
2018-01-05T18:10:19.266Z,1.90
2018-01-05T18:12:46.765Z,2.03
2018-01-05T18:15:14.292Z,1.70
2018-01-05T18:17:41.801Z,2.20
2018-01-05T18:20:09.322Z,1.90
2018-01-05T18:22:36.851Z,1.67
2018-01-05T18:25:04.403Z,1.67
2018-01-05T18:27:31.901Z,1.90
2018-01-05T18:29:59.405Z,2.03
2018-01-05T18:32:26.930Z,2.00
2018-01-05T18:34:54.453Z,1.97
2018-01-05T18:37:21.970Z,2.77
2018-01-05T18:39:49.493Z,2.37
2018-01-05T18:42:17.025Z,2.57
2018-01-05T18:44:44.533Z,2.20
2018-01-05T18:47:12.032Z,1.90
2018-01-05T18:49:39.542Z,2.20
2018-01-05T18:52:07.082Z,2.03
2018-01-05T18:54:34.589Z,1.93
2018-01-05T18:57:02.095Z,2.20
2018-01-05T18:59:29.601Z,2.10
2018-01-05T19:01:57.141Z,2.37
2018-01-05T19:04:25.485Z,1.80
2018-01-05T19:06:53.058Z,2.30
2018-01-05T19:09:20.595Z,2.50
2018-01-05T19:11:48.128Z,2.07
2018-01-05T19:14:15.633Z,2.33
2018-01-05T19:16:43.180Z,2.23
2018-01-05T19:19:10.727Z,2.30
2018-01-05T19:21:38.259Z,1.80
2018-01-05T19:24:05.779Z,2.07
2018-01-05T19:26:33.381Z,1.93
2018-01-05T19:29:00.897Z,2.30
2018-01-05T19:31:28.452Z,2.07
2018-01-05T19:33:55.978Z,2.73
2018-01-05T19:36:23.522Z,2.60
2018-01-05T19:38:51.098Z,2.67
2018-01-05T19:41:18.620Z,3.03
2018-01-05T19:43:46.165Z,3.13
2018-01-05T19:46:13.688Z,3.07
2018-01-05T19:48:41.216Z,4.03
2018-01-05T19:51:08.731Z,3.23
2018-01-05T19:53:36.346Z,3.93
2018-01-05T19:56:04.016Z,3.03
2018-01-05T19:58:31.558Z,3.80
2018-01-05T20:00:59.133Z,4.53
2018-01-05T20:03:26.633Z,4.60
2018-01-05T20:05:54.160Z,5.20
2018-01-05T20:08:21.681Z,4.83
2018-01-05T20:10:49.185Z,5.60
2018-01-05T20:13:16.713Z,6.33
2018-01-05T20:15:44.245Z,6.03
2018-01-05T20:18:11.762Z,6.10
2018-01-05T20:20:39.401Z,5.53
2018-01-05T20:23:06.899Z,5.43
2018-01-05T20:25:34.490Z,5.40
2018-01-05T20:28:02.001Z,5.90
2018-01-05T20:30:29.517Z,5.60
2018-01-05T20:32:57.036Z,5.50
2018-01-05T20:35:24.623Z,6.00
2018-01-05T20:37:52.197Z,6.07
2018-01-05T20:40:19.737Z,5.77
2018-01-05T20:42:47.262Z,6.00
2018-01-05T20:45:14.813Z,5.77
2018-01-05T20:47:42.317Z,5.60
2018-01-05T20:50:09.830Z,5.97
2018-01-05T20:52:37.366Z,6.03
2018-01-05T20:55:04.895Z,5.70
2018-01-05T20:57:32.426Z,5.33
2018-01-05T20:59:59.989Z,5.67
2018-01-05T21:02:27.530Z,5.90
2018-01-05T21:04:55.061Z,6.47
2018-01-05T21:07:22.589Z,6.43
2018-01-05T21:09:50.104Z,6.33
2018-01-05T21:12:17.612Z,6.20
2018-01-05T21:14:45.125Z,5.80
2018-01-05T21:17:12.669Z,6.30
2018-01-05T21:19:40.234Z,7.03
2018-01-05T21:22:07.781Z,5.73
2018-01-05T21:24:35.313Z,6.27
2018-01-05T21:27:02.868Z,6.77
2018-01-05T21:29:30.387Z,6.23
2018-01-05T21:31:57.892Z,6.37
2018-01-05T21:34:25.401Z,7.50
2018-01-05T21:36:52.909Z,6.87
2018-01-05T21:39:20.451Z,6.90
2018-01-05T21:41:48.028Z,7.30
2018-01-05T21:44:15.599Z,7.23
2018-01-05T21:46:43.115Z,7.67
2018-01-05T21:49:10.625Z,6.47
2018-01-05T21:51:38.133Z,7.37
2018-01-05T21:54:05.649Z,7.63
2018-01-05T21:56:33.156Z,7.30
2018-01-05T21:59:00.660Z,7.20
2018-01-05T22:01:28.169Z,7.30
2018-01-05T22:03:55.686Z,7.40
2018-01-05T22:06:23.200Z,7.03
2018-01-05T22:08:50.706Z,7.17
2018-01-05T22:11:18.219Z,7.50
2018-01-05T22:13:45.729Z,8.00
2018-01-05T22:16:13.250Z,7.17
2018-01-05T22:18:40.758Z,7.37
2018-01-05T22:21:08.278Z,7.83
2018-01-05T22:23:35.785Z,8.10
2018-01-05T22:26:03.310Z,8.23
2018-01-05T22:28:30.830Z,8.40
2018-01-05T22:30:58.331Z,8.23
2018-01-05T22:33:25.838Z,7.53
2018-01-05T22:35:53.344Z,7.50
2018-01-05T22:38:20.853Z,7.87
2018-01-05T22:40:48.362Z,8.13
2018-01-05T22:43:15.866Z,7.77
2018-01-05T22:45:43.376Z,8.47
2018-01-05T22:48:10.889Z,8.20
2018-01-05T22:50:38.410Z,9.68
2018-01-05T22:53:05.924Z,8.43
2018-01-05T22:55:33.433Z,8.17
2018-01-05T22:58:00.950Z,7.67
2018-01-05T23:00:28.460Z,8.83
2018-01-05T23:02:55.968Z,8.03
2018-01-05T23:05:23.475Z,8.30
2018-01-05T23:07:50.980Z,8.20
2018-01-05T23:10:18.485Z,8.30
2018-01-05T23:12:46.006Z,7.90
2018-01-05T23:15:13.521Z,8.87
2018-01-05T23:17:41.020Z,7.97
2018-01-05T23:20:08.530Z,8.47
2018-01-05T23:22:36.061Z,9.17
2018-01-05T23:25:03.570Z,8.87
2018-01-05T23:27:31.081Z,8.73
2018-01-05T23:29:58.614Z,7.67
2018-01-05T23:32:26.129Z,8.00
2018-01-05T23:34:53.645Z,8.50
2018-01-05T23:37:21.161Z,8.13
2018-01-05T23:39:48.676Z,8.43
2018-01-05T23:42:16.178Z,8.17
2018-01-05T23:44:43.689Z,8.40
2018-01-05T23:47:11.202Z,7.80
2018-01-05T23:49:38.713Z,8.60
2018-01-05T23:52:06.218Z,8.90
2018-01-05T23:54:33.741Z,7.80
2018-01-05T23:57:01.247Z,8.20
2018-01-05T23:59:28.801Z,8.20
